Time;durP1;ratioP1;P1;durP2;ratioP2;P2;SDS_P1;SDS_P2;PMS_P1;PMS_P2;Temp;Humidity;BMP_temperature;BMP_pressure;BME280_temperature;BME280_humidity;BME280_pressure;Samples;Min_cycle;Max_cycle;Signal;HPM_P1;HPM_P2
2023/03/07 00:00:17;;;;;;;;;;;;;;;8.80;53.62;93842.25;4193894;28;19966;-51
2023/03/07 00:02:19;;;;;;;;;;;;;;;8.92;53.00;93843.50;4199803;28;20373;-51
2023/03/07 00:04:20;;;;;;;;;;;;;;;9.02;53.82;93849.34;4213909;28;19920;-51
2023/03/07 00:06:22;;;;;;;;;;;;;;;9.11;53.69;93846.69;4214408;28;19920;-51
2023/03/07 00:08:23;;;;;;;;;;;;;;;9.08;53.95;93844.41;4214401;28;19927;-56
2023/03/07 00:10:25;;;;;;;;;;;;;;;8.98;53.96;93840.19;4214229;28;20491;-53
2023/03/07 00:12:26;;;;;;;;;;;;;;;8.98;53.97;93844.63;4210358;28;19927;-55
2023/03/07 00:14:28;;;;;;;;;;;;;;;8.89;54.15;93825.56;4198454;28;19947;-55
2023/03/07 00:16:29;;;;;;;;;;;;;;;8.87;54.34;93822.31;4211360;28;20416;-52
2023/03/07 00:18:31;;;;;;;;;;;;;;;8.91;54.05;93823.59;4206911;28;19924;-53
2023/03/07 00:20:33;;;;;;;;;;;;;;;9.00;54.07;93824.38;4188483;28;19920;-55
2023/03/07 00:22:35;;;;;;;;;;;;;;;9.07;53.86;93821.88;4196519;28;20356;-51
2023/03/07 00:24:36;;;;;;;;;;;;;;;9.18;52.89;93827.56;4198061;28;19924;-52
2023/03/07 00:26:38;;;;;;;;;;;;;;;9.25;52.96;93819.00;4195261;28;19921;-53
2023/03/07 00:28:40;;;;;;;;;;;;;;;9.32;52.06;93810.31;4188936;28;19932;-51
2023/03/07 00:30:41;;;;;;;;;;;;;;;9.35;52.06;93817.78;4199281;28;20348;-52
2023/03/07 00:32:43;;;;;;;;;;;;;;;9.47;51.44;93793.88;4200596;28;19944;-54
2023/03/07 00:34:44;;;;;;;;;;;;;;;9.44;51.14;93808.09;4198029;28;20014;-53
2023/03/07 00:36:46;;;;;;;;;;;;;;;9.39;51.51;93802.59;4207346;28;19938;-49
2023/03/07 00:38:47;;;;;;;;;;;;;;;9.42;50.81;93794.38;4203913;28;19920;-52
2023/03/07 00:40:56;;;;;;;;;;;;;;;9.46;50.80;93813.16;4184898;28;19966;-53
2023/03/07 00:42:58;;;;;;;;;;;;;;;9.53;50.67;93806.25;4206710;28;19924;-56
2023/03/07 00:44:59;;;;;;;;;;;;;;;9.58;50.35;93811.78;4205115;28;19930;-55
2023/03/07 00:47:01;;;;;;;;;;;;;;;9.58;50.97;93814.38;4197530;28;19985;-52
2023/03/07 00:49:02;;;;;;;;;;;;;;;9.49;51.73;93824.09;4185167;28;19924;-52
2023/03/07 00:51:05;;;;;;;;;;;;;;;9.18;52.80;93818.88;4201421;28;19924;-51
2023/03/07 00:53:06;;;;;;;;;;;;;;;9.13;53.36;93832.47;4211170;28;19965;-50
2023/03/07 00:55:08;;;;;;;;;;;;;;;8.98;53.66;93805.44;4201436;28;19927;-53
2023/03/07 00:57:10;;;;;;;;;;;;;;;8.95;53.27;93827.50;4184638;28;20377;-55
2023/03/07 00:59:11;;;;;;;;;;;;;;;8.80;53.45;93822.16;4197683;28;20007;-53
2023/03/07 01:01:13;;;;;;;;;;;;;;;8.78;53.97;93805.06;4187445;28;19996;-51
2023/03/07 01:03:15;;;;;;;;;;;;;;;8.68;54.62;93813.06;4193814;28;19920;-50
2023/03/07 01:05:16;;;;;;;;;;;;;;;8.57;54.44;93803.81;4197467;28;19921;-51
2023/03/07 01:07:18;;;;;;;;;;;;;;;8.34;55.25;93808.91;4197114;28;20023;-54
2023/03/07 01:09:20;;;;;;;;;;;;;;;8.40;55.83;93815.25;4208327;28;20574;-51
2023/03/07 01:11:21;;;;;;;;;;;;;;;8.17;55.78;93805.53;4191413;28;19924;-54
2023/03/07 01:13:23;;;;;;;;;;;;;;;7.89;56.98;93786.81;4180754;28;20349;-55
2023/03/07 01:15:24;;;;;;;;;;;;;;;7.60;57.92;93810.78;4184804;28;19964;-53
2023/03/07 01:17:26;;;;;;;;;;;;;;;7.47;58.37;93792.22;4211029;28;19977;-53
2023/03/07 01:19:28;;;;;;;;;;;;;;;7.64;58.23;93786.03;4210033;28;19920;-53
2023/03/07 01:21:30;;;;;;;;;;;;;;;7.65;57.21;93779.81;4196316;28;19990;-51
2023/03/07 18:29:04;;;;;;;;;;;;;;;12.06;39.27;93694.84;4169762;28;19985;-64
2023/03/07 18:31:08;;;;;;;;;;;;;;;12.11;39.39;93702.16;4203629;28;19924;-61
2023/03/07 18:33:10;;;;;;;;;;;;;;;12.13;39.26;93704.56;4195975;28;19920;-61
2023/03/07 18:35:14;;;;;;;;;;;;;;;12.13;39.37;93705.41;4207980;28;19920;-62
2023/03/07 18:37:15;;;;;;;;;;;;;;;12.14;39.21;93700.97;4206338;28;19920;-59
2023/03/07 18:39:17;;;;;;;;;;;;;;;12.13;39.44;93707.19;4212518;28;19923;-62
2023/03/07 18:41:20;;;;;;;;;;;;;;;12.08;39.36;93707.78;4200346;28;20367;-62
2023/03/07 18:43:21;;;;;;;;;;;;;;;12.09;39.52;93706.78;4209087;28;20440;-60
2023/03/07 18:45:24;;;;;;;;;;;;;;;12.09;39.28;93704.16;4213863;28;19967;-60
2023/03/07 18:47:25;;;;;;;;;;;;;;;12.10;39.74;93705.78;4202487;28;20343;-58
2023/03/07 18:49:27;;;;;;;;;;;;;;;12.10;39.55;93708.41;4184266;28;20471;-59
2023/03/07 18:51:29;;;;;;;;;;;;;;;12.12;39.37;93709.03;4190443;28;19921;-61
2023/03/07 18:53:31;;;;;;;;;;;;;;;12.12;39.13;93713.47;4179324;28;19966;-61
2023/03/07 18:55:33;;;;;;;;;;;;;;;12.11;39.40;93722.31;4189625;28;20432;-61
2023/03/07 18:57:35;;;;;;;;;;;;;;;12.03;39.55;93715.44;4166148;28;19921;-60
2023/03/07 18:59:36;;;;;;;;;;;;;;;11.93;39.68;93710.50;4183069;28;19928;-57
2023/03/07 19:01:38;;;;;;;;;;;;;;;11.99;39.99;93722.06;4196672;28;19977;-59
2023/03/07 19:03:40;;;;;;;;;;;;;;;11.98;39.67;93717.81;4195110;28;19927;-59
2023/03/07 19:05:42;;;;;;;;;;;;;;;11.97;39.82;93714.38;4186199;28;19920;-59
2023/03/07 19:07:44;;;;;;;;;;;;;;;11.99;39.93;93719.44;4184035;28;19968;-59
2023/03/07 19:09:51;;;;;;;;;;;;;;;11.94;40.07;93711.31;4189576;28;20417;-61
2023/03/07 19:11:53;;;;;;;;;;;;;;;12.01;40.02;93709.56;4181035;28;19943;-61
2023/03/07 19:13:55;;;;;;;;;;;;;;;12.00;40.13;93721.03;4194301;28;20438;-61
2023/03/07 19:16:16;;;;;;;;;;;;;;;11.95;40.35;93715.56;4180844;28;19970;-61
2023/03/07 19:18:18;;;;;;;;;;;;;;;11.97;40.91;93713.56;4191092;28;19970;-62
2023/03/07 19:20:19;;;;;;;;;;;;;;;11.96;40.92;93719.81;4183157;28;19928;-61
2023/03/07 19:22:22;;;;;;;;;;;;;;;11.91;41.22;93716.94;4180117;28;19974;-62
2023/03/07 19:24:27;;;;;;;;;;;;;;;11.92;41.61;93714.16;4180858;28;20008;-60
2023/03/07 19:26:28;;;;;;;;;;;;;;;11.87;41.86;93709.44;4181089;28;19920;-61
2023/03/07 19:28:30;;;;;;;;;;;;;;;11.87;41.85;93714.69;4193465;28;19967;-61
2023/03/07 19:30:34;;;;;;;;;;;;;;;11.89;41.91;93704.00;4192455;28;20553;-62
2023/03/07 19:32:35;;;;;;;;;;;;;;;11.88;42.31;93718.16;4206047;28;19982;-61
2023/03/07 19:34:37;;;;;;;;;;;;;;;11.90;42.24;93718.78;4200166;28;19990;-61
2023/03/07 19:36:40;;;;;;;;;;;;;;;11.85;42.37;93716.69;4200167;28;20039;-60
2023/03/07 19:38:42;;;;;;;;;;;;;;;11.86;42.72;93722.75;4212522;28;19932;-61
2023/03/07 19:40:46;;;;;;;;;;;;;;;11.82;42.83;93717.06;4196317;28;19928;-62
2023/03/07 19:42:48;;;;;;;;;;;;;;;11.81;42.86;93710.19;4216749;28;19939;-63
2023/03/07 19:44:49;;;;;;;;;;;;;;;11.80;42.82;93711.19;4220850;28;19920;-61
2023/03/07 19:46:51;;;;;;;;;;;;;;;11.80;43.02;93705.13;4216675;28;20001;-60
2023/03/07 19:48:53;;;;;;;;;;;;;;;11.78;43.03;93713.19;4198723;28;20504;-61
2023/03/07 19:50:54;;;;;;;;;;;;;;;11.78;42.81;93709.75;4215675;28;19978;-58
2023/03/07 19:52:57;;;;;;;;;;;;;;;11.77;42.93;93706.34;4214341;28;19927;-61
2023/03/07 19:54:59;;;;;;;;;;;;;;;11.79;43.21;93714.03;4204196;28;19924;-61
2023/03/07 19:57:00;;;;;;;;;;;;;;;11.81;42.99;93709.41;4208157;28;19990;-59
2023/03/07 19:59:04;;;;;;;;;;;;;;;11.76;43.06;93709.94;4199205;28;19924;-61
2023/03/07 20:01:09;;;;;;;;;;;;;;;11.73;42.98;93702.47;4214369;28;19928;-60
2023/03/07 20:03:14;;;;;;;;;;;;;;;11.73;43.00;93705.09;4221182;28;19919;-59
2023/03/07 20:05:16;;;;;;;;;;;;;;;11.73;42.93;93709.53;4232790;28;20291;-61
2023/03/07 20:07:17;;;;;;;;;;;;;;;11.72;43.55;93707.91;4230355;28;19976;-60
2023/03/07 20:09:19;;;;;;;;;;;;;;;11.71;42.99;93714.16;4231806;28;19927;-59
2023/03/07 20:11:21;;;;;;;;;;;;;;;11.70;43.16;93713.31;4232748;28;20365;-62
2023/03/07 20:13:27;;;;;;;;;;;;;;;11.76;42.86;93714.38;4228483;28;19927;-62
2023/03/07 20:15:28;;;;;;;;;;;;;;;11.75;42.92;93718.81;4232149;28;19997;-61
2023/03/07 20:17:30;;;;;;;;;;;;;;;11.76;42.65;93717.00;4231307;28;19919;-61
2023/03/07 20:19:31;;;;;;;;;;;;;;;11.73;42.78;93715.59;4232117;28;20010;-62
2023/03/07 20:21:34;;;;;;;;;;;;;;;11.75;42.67;93718.81;4220272;28;19978;-61
2023/03/07 20:23:36;;;;;;;;;;;;;;;11.75;42.74;93716.22;4227136;28;20350;-61
2023/03/07 20:25:37;;;;;;;;;;;;;;;11.75;42.63;93710.97;4221605;28;19969;-62
2023/03/07 20:27:40;;;;;;;;;;;;;;;11.78;42.55;93733.38;4232189;28;20324;-62
2023/03/07 20:29:41;;;;;;;;;;;;;;;11.78;42.37;93728.13;4231390;28;19923;-60
2023/03/07 20:31:43;;;;;;;;;;;;;;;11.75;42.70;93731.94;4226992;28;20498;-62
2023/03/07 20:33:45;;;;;;;;;;;;;;;11.76;42.46;93732.75;4221575;28;19998;-61
2023/03/07 20:35:46;;;;;;;;;;;;;;;11.56;42.67;93740.47;4221071;28;19920;-60
2023/03/07 20:37:48;;;;;;;;;;;;;;;11.42;43.03;93740.34;4221015;28;20382;-60
2023/03/07 20:39:49;;;;;;;;;;;;;;;11.17;43.85;93741.72;4218279;28;19973;-61
2023/03/07 20:41:51;;;;;;;;;;;;;;;10.90;44.83;93741.41;4230018;28;20014;-61
2023/03/07 20:43:52;;;;;;;;;;;;;;;10.73;45.19;93745.22;4218392;28;20404;-60
2023/03/07 20:45:54;;;;;;;;;;;;;;;10.66;45.10;93755.63;4227211;28;19968;-59
2023/03/07 20:47:55;;;;;;;;;;;;;;;10.41;45.85;93760.34;4222500;28;20419;-59
2023/03/07 20:49:57;;;;;;;;;;;;;;;10.30;46.08;93752.94;4219589;28;19928;-60
2023/03/07 20:51:58;;;;;;;;;;;;;;;10.19;46.62;93757.59;4220766;28;19924;-59
2023/03/07 20:54:07;;;;;;;;;;;;;;;10.22;46.48;93754.63;4224711;28;20319;-60
2023/03/07 20:56:09;;;;;;;;;;;;;;;10.32;46.04;93767.47;4197887;28;19928;-61
2023/03/07 20:58:10;;;;;;;;;;;;;;;10.37;46.17;93766.94;4210877;28;19968;-61
2023/03/07 21:00:12;;;;;;;;;;;;;;;10.44;46.25;93765.22;4211357;28;19920;-65
2023/03/07 21:02:14;;;;;;;;;;;;;;;10.34;46.46;93762.88;4213642;28;20349;-56
2023/03/07 21:04:17;;;;;;;;;;;;;;;10.05;46.72;93753.97;4216249;28;19919;-59
2023/03/07 21:06:18;;;;;;;;;;;;;;;9.90;47.13;93760.19;4231360;28;19923;-58
2023/03/07 21:08:21;;;;;;;;;;;;;;;9.91;47.15;93767.03;4218836;28;19920;-63
2023/03/07 21:10:23;;;;;;;;;;;;;;;10.02;46.78;93770.06;4227348;28;19965;-62
2023/03/07 21:12:25;;;;;;;;;;;;;;;10.17;46.74;93762.19;4204980;28;19942;-59
2023/03/07 21:14:26;;;;;;;;;;;;;;;10.10;46.69;93760.47;4230885;28;19926;-60
2023/03/07 21:16:29;;;;;;;;;;;;;;;10.16;46.24;93760.56;4230652;28;19971;-57
2023/03/07 21:18:31;;;;;;;;;;;;;;;10.23;46.39;93761.47;4228527;28;20006;-58
2023/03/07 21:20:33;;;;;;;;;;;;;;;10.32;46.30;93761.44;4226846;28;19919;-60
2023/03/07 21:22:34;;;;;;;;;;;;;;;10.28;46.57;93763.56;4221415;28;19977;-60
2023/03/07 21:24:36;;;;;;;;;;;;;;;10.31;46.23;93759.81;4229904;28;20109;-60
2023/03/07 21:26:37;;;;;;;;;;;;;;;10.01;46.94;93757.13;4229870;28;20634;-61
2023/03/07 21:28:39;;;;;;;;;;;;;;;10.05;46.45;93768.88;4221851;28;20032;-59
2023/03/07 21:30:41;;;;;;;;;;;;;;;10.14;46.72;93765.19;4230332;28;19923;-60
2023/03/07 21:32:43;;;;;;;;;;;;;;;10.24;47.03;93762.31;4223557;28;19954;-61
2023/03/07 21:34:44;;;;;;;;;;;;;;;10.34;46.62;93767.28;4228609;28;19924;-60
2023/03/07 21:36:46;;;;;;;;;;;;;;;10.40;46.81;93762.16;4219483;28;19951;-60
2023/03/07 21:38:48;;;;;;;;;;;;;;;10.36;46.46;93760.06;4219332;28;19973;-58
2023/03/07 21:40:50;;;;;;;;;;;;;;;10.32;46.21;93766.66;4204532;28;20023;-60
2023/03/07 21:42:51;;;;;;;;;;;;;;;10.29;46.55;93765.22;4207628;28;19963;-61
2023/03/07 21:44:53;;;;;;;;;;;;;;;10.19;46.92;93762.03;4199931;28;19920;-56
2023/03/07 21:46:54;;;;;;;;;;;;;;;10.03;47.30;93766.44;4218015;28;19972;-59
2023/03/07 21:48:58;;;;;;;;;;;;;;;9.84;47.48;93762.50;4222283;28;19938;-60
2023/03/07 21:51:00;;;;;;;;;;;;;;;9.75;48.38;93766.19;4213882;28;19920;-59
2023/03/07 21:53:02;;;;;;;;;;;;;;;9.73;48.52;93772.59;4193262;28;19924;-59
2023/03/07 21:55:03;;;;;;;;;;;;;;;9.71;48.91;93775.38;4207613;28;20403;-60
2023/03/07 21:57:05;;;;;;;;;;;;;;;9.71;48.19;93770.16;4230505;28;19919;-59
2023/03/07 21:59:07;;;;;;;;;;;;;;;9.79;48.88;93770.09;4230592;28;19926;-62
2023/03/07 22:01:10;;;;;;;;;;;;;;;9.86;48.00;93757.09;4226574;28;19935;-63
2023/03/07 22:03:12;;;;;;;;;;;;;;;9.95;48.50;93760.47;4208079;28;19920;-59
2023/03/07 22:05:13;;;;;;;;;;;;;;;10.03;48.39;93757.78;4204069;28;20011;-60
2023/03/07 22:07:15;;;;;;;;;;;;;;;10.01;48.10;93757.13;4200061;28;20023;-58
2023/03/07 22:09:18;;;;;;;;;;;;;;;10.03;48.32;93760.38;4206921;28;19965;-52
2023/03/07 22:11:20;;;;;;;;;;;;;;;10.02;48.11;93761.38;4206756;28;20340;-55
2023/03/07 22:13:21;;;;;;;;;;;;;;;10.02;48.07;93758.75;4208249;28;19927;-53
2023/03/07 22:15:23;;;;;;;;;;;;;;;10.07;48.10;93768.69;4205789;28;19982;-53
2023/03/07 22:17:25;;;;;;;;;;;;;;;10.10;48.10;93766.53;4213526;28;20006;-56
2023/03/07 22:19:26;;;;;;;;;;;;;;;10.10;48.24;93770.94;4213408;28;19932;-56
2023/03/07 22:21:28;;;;;;;;;;;;;;;9.97;48.67;93776.78;4216443;28;19931;-55
2023/03/07 22:23:29;;;;;;;;;;;;;;;9.92;48.72;93774.72;4217660;28;19928;-53
2023/03/07 22:25:32;;;;;;;;;;;;;;;9.90;48.97;93770.66;4206721;28;19974;-57
2023/03/07 22:27:34;;;;;;;;;;;;;;;9.93;48.87;93767.69;4209583;28;19978;-57
2023/03/07 22:29:36;;;;;;;;;;;;;;;9.97;48.72;93771.56;4212567;28;19928;-53
2023/03/07 22:31:37;;;;;;;;;;;;;;;10.01;48.55;93778.88;4208912;28;19919;-54
2023/03/07 22:33:39;;;;;;;;;;;;;;;9.93;48.83;93773.72;4202325;28;19977;-55
2023/03/07 22:35:41;;;;;;;;;;;;;;;9.95;48.38;93784.00;4209134;28;19978;-57
2023/03/07 22:37:43;;;;;;;;;;;;;;;9.98;48.48;93784.47;4218277;28;19920;-57
2023/03/07 22:39:44;;;;;;;;;;;;;;;9.77;49.31;93777.28;4218953;28;19919;-52
2023/03/07 22:41:46;;;;;;;;;;;;;;;9.53;50.18;93780.94;4214975;28;19982;-55
2023/03/07 22:43:47;;;;;;;;;;;;;;;9.52;49.57;93783.72;4221680;28;19920;-56
2023/03/07 22:45:51;;;;;;;;;;;;;;;9.58;50.00;93785.63;4211205;28;19981;-54
2023/03/07 22:47:53;;;;;;;;;;;;;;;9.67;49.60;93789.78;4210988;28;19920;-55
2023/03/07 22:49:55;;;;;;;;;;;;;;;9.72;49.75;93784.88;4210483;28;19942;-54
2023/03/07 22:51:56;;;;;;;;;;;;;;;9.77;49.21;93779.09;4196372;28;20011;-54
2023/03/07 22:53:58;;;;;;;;;;;;;;;9.67;49.99;93787.19;4178213;28;20367;-55
2023/03/07 22:56:00;;;;;;;;;;;;;;;9.58;50.17;93790.84;4196637;28;20336;-57
2023/03/07 22:58:02;;;;;;;;;;;;;;;9.59;50.09;93782.84;4212722;28;20308;-57
2023/03/07 23:00:04;;;;;;;;;;;;;;;9.48;50.51;93787.66;4219999;28;19972;-57
2023/03/07 23:02:05;;;;;;;;;;;;;;;9.42;50.62;93790.00;4229857;28;19947;-51
2023/03/07 23:04:07;;;;;;;;;;;;;;;9.43;50.25;93794.22;4200115;28;19920;-52
2023/03/07 23:06:08;;;;;;;;;;;;;;;9.54;50.82;93792.19;4208606;28;19977;-54
2023/03/07 23:08:10;;;;;;;;;;;;;;;9.59;50.39;93793.31;4196268;28;19963;-56
2023/03/07 23:10:11;;;;;;;;;;;;;;;9.57;50.54;93802.28;4208749;28;20378;-53
2023/03/07 23:12:13;;;;;;;;;;;;;;;9.53;50.40;93790.56;4209662;28;19928;-49
2023/03/07 23:14:15;;;;;;;;;;;;;;;9.50;50.74;93791.72;4208383;28;19920;-52
2023/03/07 23:16:17;;;;;;;;;;;;;;;9.56;50.85;93796.25;4197240;28;19952;-52
2023/03/07 23:18:19;;;;;;;;;;;;;;;9.42;50.76;93799.63;4196234;28;20295;-48
2023/03/07 23:20:24;;;;;;;;;;;;;;;9.32;51.11;93799.84;4200091;28;19920;-55
2023/03/07 23:22:25;;;;;;;;;;;;;;;9.16;51.51;93799.94;4211038;28;19947;-51
2023/03/07 23:24:27;;;;;;;;;;;;;;;9.05;51.57;93802.94;4211275;28;19985;-54
2023/03/07 23:26:29;;;;;;;;;;;;;;;9.04;51.67;93802.16;4214105;28;19974;-50
2023/03/07 23:28:31;;;;;;;;;;;;;;;9.11;51.90;93803.06;4199531;28;19927;-54
2023/03/07 23:30:36;;;;;;;;;;;;;;;9.15;51.54;93798.34;4197524;28;19921;-56
2023/03/07 23:32:37;;;;;;;;;;;;;;;9.21;51.78;93808.09;4197818;28;20042;-55
2023/03/07 23:34:39;;;;;;;;;;;;;;;9.24;51.54;93802.50;4213659;28;19920;-54
2023/03/07 23:36:40;;;;;;;;;;;;;;;9.31;51.31;93805.25;4200149;28;19921;-52
2023/03/07 23:38:43;;;;;;;;;;;;;;;9.34;51.35;93803.13;4212145;28;19924;-54
2023/03/07 23:40:44;;;;;;;;;;;;;;;9.36;51.33;93803.75;4196305;28;19920;-50
2023/03/07 23:42:46;;;;;;;;;;;;;;;9.38;50.78;93798.34;4215248;28;20017;-51
2023/03/07 23:44:47;;;;;;;;;;;;;;;9.28;51.33;93806.41;4204621;28;19921;-53
2023/03/07 23:46:49;;;;;;;;;;;;;;;9.20;51.54;93815.09;4207706;28;19969;-55
2023/03/07 23:48:50;;;;;;;;;;;;;;;9.07;51.91;93809.63;4197849;28;19971;-53
2023/03/07 23:50:52;;;;;;;;;;;;;;;8.88;52.84;93808.25;4184152;28;19921;-57
2023/03/07 23:52:53;;;;;;;;;;;;;;;8.91;52.78;93802.69;4206657;28;19981;-54
2023/03/07 23:54:55;;;;;;;;;;;;;;;8.97;52.30;93809.84;4205274;28;20003;-59
2023/03/07 23:56:56;;;;;;;;;;;;;;;9.04;51.60;93817.00;4213684;28;20274;-57
2023/03/07 23:58:58;;;;;;;;;;;;;;;9.08;51.47;93813.88;4204858;28;19997;-58
